createdAt,value
2024-05-09T00:00:22.514Z,964.6920
2024-05-09T00:01:18.931Z,964.6878
2024-05-09T00:02:19.790Z,964.6848
2024-05-09T00:03:22.305Z,964.6927
2024-05-09T00:04:22.234Z,964.6876
2024-05-09T00:05:24.431Z,964.6788
2024-05-09T00:06:24.375Z,964.6740
2024-05-09T00:07:26.423Z,964.6808
2024-05-09T00:08:28.827Z,964.6846
2024-05-09T00:09:31.022Z,964.6858
2024-05-09T00:10:36.970Z,964.6765
2024-05-09T00:11:34.145Z,964.6561
2024-05-09T00:12:36.326Z,964.6516
2024-05-09T00:13:38.506Z,964.6396
2024-05-09T00:14:40.748Z,964.6258
2024-05-09T00:15:42.905Z,964.6292
2024-05-09T00:16:45.086Z,964.6265
2024-05-09T00:17:47.417Z,964.6104
2024-05-09T00:18:47.467Z,964.5884
2024-05-09T00:19:48.991Z,964.5708
2024-05-09T00:20:49.789Z,964.5480
2024-05-09T00:21:49.574Z,964.5280
2024-05-09T00:22:51.776Z,964.5139
2024-05-09T00:23:52.351Z,964.4972
2024-05-09T00:24:53.238Z,964.4904
2024-05-09T00:25:55.427Z,964.4888
2024-05-09T00:26:57.629Z,964.4892
2024-05-09T00:27:59.820Z,964.5015
2024-05-09T00:29:02.219Z,964.4996
2024-05-09T00:30:04.207Z,964.4884
2024-05-09T00:31:04.175Z,964.4820
2024-05-09T00:32:06.414Z,964.4742
2024-05-09T00:33:07.859Z,964.4704
2024-05-09T00:34:07.094Z,964.4637
2024-05-09T00:35:07.055Z,964.4600
2024-05-09T00:36:09.346Z,964.4565
2024-05-09T00:37:11.553Z,964.4550
2024-05-09T00:38:13.780Z,964.4627
2024-05-09T00:39:15.987Z,964.4800
2024-05-09T00:40:26.568Z,964.4885
2024-05-09T00:41:19.928Z,964.4882
2024-05-09T00:42:19.844Z,964.4820
2024-05-09T00:43:22.070Z,964.4842
2024-05-09T00:44:24.518Z,964.4892
2024-05-09T00:45:24.503Z,964.5020
2024-05-09T00:46:24.487Z,964.5076
2024-05-09T00:47:26.886Z,964.5120
2024-05-09T00:48:27.188Z,964.5204
2024-05-09T00:49:28.520Z,964.5140
2024-05-09T00:50:35.230Z,964.5056
2024-05-09T00:51:29.411Z,964.4896
2024-05-09T00:52:31.612Z,964.4911
2024-05-09T00:53:33.950Z,964.4811
2024-05-09T00:54:33.938Z,964.4904
2024-05-09T00:55:36.150Z,964.4827
2024-05-09T00:56:36.283Z,964.4760
2024-05-09T00:57:38.580Z,964.4688
2024-05-09T00:58:40.800Z,964.4627
2024-05-09T00:59:43.018Z,964.4719
2024-05-09T01:00:45.422Z,964.4684
2024-05-09T01:01:48.407Z,964.4696
2024-05-09T01:02:48.357Z,964.4528
2024-05-09T01:03:51.672Z,964.4604
2024-05-09T01:04:51.996Z,964.4708
2024-05-09T01:05:52.032Z,964.4736
2024-05-09T01:06:52.006Z,964.4672
2024-05-09T01:07:54.158Z,964.4634
2024-05-09T01:08:56.437Z,964.4581
2024-05-09T01:09:58.776Z,964.4558
2024-05-09T01:11:01.386Z,964.4512
2024-05-09T01:12:02.523Z,964.4488
2024-05-09T01:13:02.868Z,964.4444
2024-05-09T01:14:05.202Z,964.4300
2024-05-09T01:15:07.521Z,964.4219
2024-05-09T01:16:12.821Z,964.4211
2024-05-09T01:17:11.307Z,964.4225
2024-05-09T01:18:12.477Z,964.4156
2024-05-09T01:19:13.789Z,964.4148
2024-05-09T01:20:20.052Z,964.4200
2024-05-09T01:21:14.968Z,964.4208
2024-05-09T01:22:14.927Z,964.4224
2024-05-09T01:23:17.224Z,964.4265
2024-05-09T01:24:17.926Z,964.4168
2024-05-09T01:25:20.265Z,964.4169
2024-05-09T01:26:22.387Z,964.4135
2024-05-09T01:27:24.724Z,964.4058
2024-05-09T01:28:26.792Z,964.4042
2024-05-09T01:29:29.166Z,964.4034
2024-05-09T01:30:35.111Z,964.4039
2024-05-09T01:31:32.222Z,964.4000
2024-05-09T01:32:34.649Z,964.3873
2024-05-09T01:33:34.724Z,964.3816
2024-05-09T01:34:34.622Z,964.3736
2024-05-09T01:35:36.962Z,964.3600
2024-05-09T01:36:36.766Z,964.3476
2024-05-09T01:37:39.857Z,964.3492
2024-05-09T01:38:39.624Z,964.3464
2024-05-09T01:39:41.704Z,964.3427
2024-05-09T01:40:43.937Z,964.3488
2024-05-09T01:41:46.181Z,964.3292
2024-05-09T01:42:48.429Z,964.3377
2024-05-09T01:43:50.604Z,964.3400
2024-05-09T01:44:52.760Z,964.3350
2024-05-09T01:45:54.926Z,964.3273
2024-05-09T01:46:57.247Z,964.3196
2024-05-09T01:47:59.741Z,964.3146
2024-05-09T01:48:59.833Z,964.2848
2024-05-09T01:49:59.745Z,964.2996
2024-05-09T01:51:01.949Z,964.3008
2024-05-09T01:52:01.936Z,964.3084
2024-05-09T01:53:04.161Z,964.2988
2024-05-09T01:54:06.464Z,964.2869
2024-05-09T01:55:08.554Z,964.2623
2024-05-09T01:56:10.795Z,964.2570
2024-05-09T01:57:12.847Z,964.2430
2024-05-09T01:58:15.110Z,964.2392
2024-05-09T01:59:17.252Z,964.2485
2024-05-09T02:00:30.157Z,964.2361
2024-05-09T02:01:20.303Z,964.2304
2024-05-09T02:02:22.627Z,964.2161
2024-05-09T02:03:25.038Z,964.2047
2024-05-09T02:04:25.051Z,964.1888
2024-05-09T02:05:25.029Z,964.1852
2024-05-09T02:06:27.099Z,964.1838
2024-05-09T02:07:29.190Z,964.1758
2024-05-09T02:08:31.490Z,964.1638
2024-05-09T02:09:31.533Z,964.1556
2024-05-09T02:10:33.875Z,964.1566
2024-05-09T02:11:33.996Z,964.1700
2024-05-09T02:12:33.877Z,964.1720
2024-05-09T02:13:33.740Z,964.1764
2024-05-09T02:14:36.054Z,964.1631
2024-05-09T02:15:37.022Z,964.1512
2024-05-09T02:16:39.374Z,964.1508
2024-05-09T02:17:40.511Z,964.1516
2024-05-09T02:18:40.586Z,964.1596
2024-05-09T02:19:41.430Z,964.1524
2024-05-09T02:20:44.148Z,964.1512
2024-05-09T02:21:44.121Z,964.1652
2024-05-09T02:22:46.386Z,964.1523
2024-05-09T02:23:46.372Z,964.1532
2024-05-09T02:24:48.540Z,964.1508
2024-05-09T02:25:50.738Z,964.1431
2024-05-09T02:26:52.888Z,964.1365
2024-05-09T02:27:55.056Z,964.1373
2024-05-09T02:28:57.323Z,964.1292
2024-05-09T02:29:59.492Z,964.1077
2024-05-09T02:31:01.698Z,964.0969
2024-05-09T02:32:02.977Z,964.1048
2024-05-09T02:33:03.463Z,964.1088
2024-05-09T02:34:03.420Z,964.1068
2024-05-09T02:35:03.423Z,964.1092
2024-05-09T02:36:03.365Z,964.1172
2024-05-09T02:37:05.734Z,964.1158
2024-05-09T02:38:06.692Z,964.1216
2024-05-09T02:39:06.756Z,964.1232
2024-05-09T02:40:14.273Z,964.1185
2024-05-09T02:41:10.083Z,964.1069
2024-05-09T02:42:12.333Z,964.1019
2024-05-09T02:43:14.566Z,964.0912
2024-05-09T02:44:16.896Z,964.0808
2024-05-09T02:45:16.807Z,964.0784
2024-05-09T02:46:19.172Z,964.0700
2024-05-09T02:47:21.757Z,964.0630
2024-05-09T02:48:21.821Z,964.0672
2024-05-09T02:49:24.221Z,964.0569
2024-05-09T02:50:33.060Z,964.0472
2024-05-09T02:51:26.870Z,964.0400
2024-05-09T02:52:27.293Z,964.0404
2024-05-09T02:53:27.157Z,964.0456
2024-05-09T02:54:29.323Z,964.0558
2024-05-09T02:55:31.605Z,964.0523
2024-05-09T02:56:34.045Z,964.0527
2024-05-09T02:57:36.174Z,964.0419
2024-05-09T02:58:38.440Z,964.0427
2024-05-09T02:59:40.730Z,964.0438
2024-05-09T03:00:42.831Z,964.0540
2024-05-09T03:01:42.492Z,964.0491
2024-05-09T03:02:42.735Z,964.0520
2024-05-09T03:03:42.730Z,964.0532
2024-05-09T03:04:42.759Z,964.0536
2024-05-09T03:05:45.394Z,964.0504
2024-05-09T03:06:45.457Z,964.0472
2024-05-09T03:07:46.409Z,964.0516
2024-05-09T03:08:46.270Z,964.0572
2024-05-09T03:09:48.389Z,964.0592
2024-05-09T03:10:50.584Z,964.0658
2024-05-09T03:11:52.981Z,964.0819
2024-05-09T03:12:52.928Z,964.0852
2024-05-09T03:13:55.099Z,964.0900
2024-05-09T03:14:57.200Z,964.0762
2024-05-09T03:15:59.537Z,964.0815
2024-05-09T03:17:01.915Z,964.0862
2024-05-09T03:18:02.142Z,964.0920
2024-05-09T03:19:02.465Z,964.0960
2024-05-09T03:20:05.110Z,964.1024
2024-05-09T03:21:04.355Z,964.1013
2024-05-09T03:22:06.660Z,964.0954
2024-05-09T03:23:06.795Z,964.0864
2024-05-09T03:24:09.167Z,964.0908
2024-05-09T03:25:11.351Z,964.0942
2024-05-09T03:26:13.665Z,964.0988
2024-05-09T03:27:15.908Z,964.1088
2024-05-09T03:28:15.763Z,964.1012
2024-05-09T03:29:18.078Z,964.0865
2024-05-09T03:30:29.289Z,964.0816
2024-05-09T03:31:18.947Z,964.0674
2024-05-09T03:32:21.488Z,964.0588
2024-05-09T03:33:21.835Z,964.0580
2024-05-09T03:34:22.058Z,964.0556
2024-05-09T03:35:25.005Z,964.0569
2024-05-09T03:36:24.993Z,964.0528
2024-05-09T03:37:25.464Z,964.0576
2024-05-09T03:38:26.242Z,964.0432
2024-05-09T03:39:28.530Z,964.0477
2024-05-09T03:40:31.401Z,964.0446
2024-05-09T03:41:31.480Z,964.0440
2024-05-09T03:42:31.932Z,964.0388
2024-05-09T03:43:31.822Z,964.0408
2024-05-09T03:44:34.217Z,964.0392
2024-05-09T03:45:34.191Z,964.0420
2024-05-09T03:46:36.417Z,964.0477
2024-05-09T03:47:38.848Z,964.0473
2024-05-09T03:48:38.968Z,964.0508
2024-05-09T03:49:41.206Z,964.0508
2024-05-09T03:50:43.610Z,964.0496
2024-05-09T03:51:44.082Z,964.0504
2024-05-09T03:52:44.024Z,964.0476
2024-05-09T03:53:44.273Z,964.0520
2024-05-09T03:54:46.434Z,964.0477
2024-05-09T03:55:48.620Z,964.0477
2024-05-09T03:56:50.938Z,964.0408
2024-05-09T03:57:53.271Z,964.0438
2024-05-09T03:58:55.592Z,964.0542
2024-05-09T03:59:57.744Z,964.0654
2024-05-09T04:01:00.963Z,964.0758
2024-05-09T04:02:01.995Z,964.0744
2024-05-09T04:03:02.330Z,964.0776
2024-05-09T04:04:02.510Z,964.0940
2024-05-09T04:05:04.893Z,964.0954
2024-05-09T04:06:05.411Z,964.0960
2024-05-09T04:07:05.273Z,964.1108
2024-05-09T04:08:07.710Z,964.1104
2024-05-09T04:09:07.639Z,964.1072
2024-05-09T04:10:16.994Z,964.1053
2024-05-09T04:11:10.992Z,964.0931
2024-05-09T04:12:12.023Z,964.0928
2024-05-09T04:13:13.015Z,964.0968
2024-05-09T04:14:15.293Z,964.1027
2024-05-09T04:15:15.580Z,964.1031
2024-05-09T04:16:17.755Z,964.1108
2024-05-09T04:17:20.595Z,964.1108
2024-05-09T04:18:22.442Z,964.1133
2024-05-09T04:19:24.640Z,964.1158
2024-05-09T04:20:33.909Z,964.1044
2024-05-09T04:21:25.563Z,964.1013
2024-05-09T04:22:27.718Z,964.0847
2024-05-09T04:23:30.009Z,964.0934
2024-05-09T04:24:29.998Z,964.0856
2024-05-09T04:25:32.275Z,964.0958
2024-05-09T04:26:34.627Z,964.0927
2024-05-09T04:27:37.832Z,964.0958
2024-05-09T04:28:37.707Z,964.0944
2024-05-09T04:29:40.028Z,964.1011
2024-05-09T04:30:42.684Z,964.1019
2024-05-09T04:31:43.022Z,964.1160
2024-05-09T04:32:45.427Z,964.1212
2024-05-09T04:33:46.732Z,964.1340
2024-05-09T04:34:46.752Z,964.1320
2024-05-09T04:35:48.999Z,964.1435
2024-05-09T04:36:51.180Z,964.1442
2024-05-09T04:37:51.469Z,964.1668
2024-05-09T04:38:53.677Z,964.1765
2024-05-09T04:39:55.920Z,964.1885
2024-05-09T04:40:58.103Z,964.2008
2024-05-09T04:42:00.293Z,964.2104
2024-05-09T04:43:02.382Z,964.2246
2024-05-09T04:44:04.548Z,964.2350
2024-05-09T04:45:06.692Z,964.2365
2024-05-09T04:46:08.902Z,964.2330
2024-05-09T04:47:11.986Z,964.2323
2024-05-09T04:48:12.177Z,964.2352
2024-05-09T04:49:12.106Z,964.2332
2024-05-09T04:50:21.182Z,964.2323
2024-05-09T04:51:15.381Z,964.2457
2024-05-09T04:52:18.376Z,964.2404
2024-05-09T04:53:18.428Z,964.2560
2024-05-09T04:54:26.209Z,964.2612
2024-05-09T04:55:19.449Z,964.2774
2024-05-09T04:56:21.644Z,964.2896
2024-05-09T04:57:23.880Z,964.2931
2024-05-09T04:58:25.980Z,964.2973
2024-05-09T04:59:28.328Z,964.3019
2024-05-09T05:00:35.035Z,964.3032
2024-05-09T05:01:29.292Z,964.3022
2024-05-09T05:02:31.616Z,964.3054
2024-05-09T05:03:34.036Z,964.3142
2024-05-09T05:04:33.998Z,964.3128
2024-05-09T05:05:36.266Z,964.3135
2024-05-09T05:06:38.544Z,964.3215
2024-05-09T05:07:40.648Z,964.3365
2024-05-09T05:08:42.863Z,964.3466
2024-05-09T05:09:45.024Z,964.3573
2024-05-09T05:10:47.945Z,964.3700
2024-05-09T05:11:49.572Z,964.3660
2024-05-09T05:12:51.521Z,964.3704
2024-05-09T05:13:52.475Z,964.3820
2024-05-09T05:14:54.957Z,964.4042
2024-05-09T05:15:54.860Z,964.4152
2024-05-09T05:16:55.772Z,964.4220
2024-05-09T05:17:55.884Z,964.4328
2024-05-09T05:18:56.130Z,964.4372
2024-05-09T05:19:57.250Z,964.4240
2024-05-09T05:20:57.397Z,964.4204
2024-05-09T05:21:57.448Z,964.4128
2024-05-09T05:22:58.256Z,964.4024
2024-05-09T05:24:00.560Z,964.3800
2024-05-09T05:25:02.877Z,964.3569
2024-05-09T05:26:03.305Z,964.3436
2024-05-09T05:27:04.240Z,964.3472
2024-05-09T05:28:06.568Z,964.3696
2024-05-09T05:29:08.905Z,964.3788
2024-05-09T05:30:17.628Z,964.4042
2024-05-09T05:31:13.097Z,964.4178
2024-05-09T05:32:13.194Z,964.4160
2024-05-09T05:33:13.582Z,964.4272
2024-05-09T05:34:14.123Z,964.4468
2024-05-09T05:35:16.401Z,964.4711
2024-05-09T05:36:16.346Z,964.4876
2024-05-09T05:37:18.505Z,964.4969
2024-05-09T05:38:24.827Z,964.5062
2024-05-09T05:39:21.866Z,964.5148
2024-05-09T05:40:32.356Z,964.5108
2024-05-09T05:41:25.452Z,964.4982
2024-05-09T05:42:25.753Z,964.4792
2024-05-09T05:43:28.035Z,964.4896
2024-05-09T05:44:30.432Z,964.5023
2024-05-09T05:45:30.358Z,964.4976
2024-05-09T05:46:32.683Z,964.4700
2024-05-09T05:47:35.218Z,964.4746
2024-05-09T05:48:35.331Z,964.4664
2024-05-09T05:49:37.820Z,964.4765
2024-05-09T05:50:38.779Z,964.4812
2024-05-09T05:51:38.954Z,964.4896
2024-05-09T05:52:41.245Z,964.4850
2024-05-09T05:53:42.288Z,964.4860
2024-05-09T05:54:42.282Z,964.4948
2024-05-09T05:55:44.718Z,964.5031
2024-05-09T05:56:44.996Z,964.5004
2024-05-09T05:57:45.135Z,964.4948
2024-05-09T05:58:47.378Z,964.5004
2024-05-09T05:59:49.677Z,964.5058
2024-05-09T06:00:52.413Z,964.5292
2024-05-09T06:01:52.365Z,964.5448
2024-05-09T06:02:52.462Z,964.5452
2024-05-09T06:03:53.484Z,964.5600
2024-05-09T06:04:54.046Z,964.5696
2024-05-09T06:05:54.120Z,964.5744
2024-05-09T06:06:56.353Z,964.5781
2024-05-09T06:07:58.698Z,964.5954
2024-05-09T06:08:58.982Z,964.6028
2024-05-09T06:10:01.280Z,964.5919
2024-05-09T06:11:03.751Z,964.5650
2024-05-09T06:12:03.831Z,964.5532
2024-05-09T06:13:05.365Z,964.5540
2024-05-09T06:14:05.282Z,964.5552
2024-05-09T06:15:07.649Z,964.5473
2024-05-09T06:16:09.959Z,964.5458
2024-05-09T06:17:12.399Z,964.5565
2024-05-09T06:18:13.014Z,964.5516
2024-05-09T06:19:13.218Z,964.5452
2024-05-09T06:20:20.560Z,964.5272
2024-05-09T06:21:15.482Z,964.5266
2024-05-09T06:22:15.960Z,964.5296
2024-05-09T06:23:18.214Z,964.5331
2024-05-09T06:24:18.598Z,964.5304
2024-05-09T06:25:20.839Z,964.5496
2024-05-09T06:26:23.223Z,964.5569
2024-05-09T06:27:23.963Z,964.5656
2024-05-09T06:28:23.788Z,964.5536
2024-05-09T06:29:26.144Z,964.5473
2024-05-09T06:30:34.902Z,964.5344
2024-05-09T06:31:27.010Z,964.5113
2024-05-09T06:32:29.321Z,964.5189
2024-05-09T06:33:29.585Z,964.5280
2024-05-09T06:34:29.783Z,964.5288
2024-05-09T06:35:29.858Z,964.5368
2024-05-09T06:36:30.402Z,964.5388
2024-05-09T06:37:30.303Z,964.5460
2024-05-09T06:38:32.591Z,964.5366
2024-05-09T06:39:32.543Z,964.5164
2024-05-09T06:40:38.323Z,964.5035
2024-05-09T06:41:35.849Z,964.4952
2024-05-09T06:42:38.070Z,964.4800
2024-05-09T06:43:40.131Z,964.4581
2024-05-09T06:44:42.291Z,964.4500
2024-05-09T06:45:44.481Z,964.4569
2024-05-09T06:46:46.868Z,964.4562
2024-05-09T06:47:46.954Z,964.4456
2024-05-09T06:48:50.503Z,964.4315
2024-05-09T06:49:50.623Z,964.4200
2024-05-09T06:50:50.726Z,964.4344
2024-05-09T06:51:50.751Z,964.4464
2024-05-09T06:52:52.915Z,964.4420
2024-05-09T06:53:55.067Z,964.4231
2024-05-09T06:54:57.356Z,964.3927
2024-05-09T06:55:59.630Z,964.3831
2024-05-09T06:57:01.932Z,964.4031
2024-05-09T06:58:03.993Z,964.4219
2024-05-09T06:59:06.325Z,964.4261
2024-05-09T07:00:15.466Z,964.4165
2024-05-09T07:01:09.600Z,964.4247
2024-05-09T07:02:09.635Z,964.4392
2024-05-09T07:03:10.078Z,964.4408
2024-05-09T07:04:11.303Z,964.4492
2024-05-09T07:05:11.627Z,964.4684
2024-05-09T07:06:11.656Z,964.4568
2024-05-09T07:07:14.045Z,964.4485
2024-05-09T07:08:16.554Z,964.4604
2024-05-09T07:09:16.789Z,964.4580
2024-05-09T07:10:22.143Z,964.4640
2024-05-09T07:11:18.025Z,964.4318
2024-05-09T07:12:19.090Z,964.4396
2024-05-09T07:13:19.107Z,964.4680
2024-05-09T07:14:21.552Z,964.4661
2024-05-09T07:15:21.795Z,964.4744
2024-05-09T07:16:21.800Z,964.4772
2024-05-09T07:17:24.240Z,964.4792
2024-05-09T07:18:24.504Z,964.4792
2024-05-09T07:19:25.012Z,964.4832
2024-05-09T07:20:32.491Z,964.4912
2024-05-09T07:21:26.093Z,964.4982
2024-05-09T07:22:25.976Z,964.4840
2024-05-09T07:23:26.044Z,964.4660
2024-05-09T07:24:26.042Z,964.4472
2024-05-09T07:25:28.369Z,964.4477
2024-05-09T07:26:28.329Z,964.4324
2024-05-09T07:27:29.916Z,964.4216
2024-05-09T07:28:30.073Z,964.4156
2024-05-09T07:29:34.714Z,964.4158
2024-05-09T07:30:34.765Z,964.4009
2024-05-09T07:31:35.162Z,964.4056
2024-05-09T07:32:37.567Z,964.3850
2024-05-09T07:33:38.570Z,964.3724
2024-05-09T07:34:38.634Z,964.3656
2024-05-09T07:35:38.839Z,964.3556
2024-05-09T07:36:39.886Z,964.3492
2024-05-09T07:37:42.215Z,964.3450
2024-05-09T07:38:42.242Z,964.3340
2024-05-09T07:39:42.552Z,964.3304
2024-05-09T07:40:42.575Z,964.3212
2024-05-09T07:41:44.912Z,964.3054
2024-05-09T07:42:44.995Z,964.2908
2024-05-09T07:43:47.329Z,964.2827
2024-05-09T07:44:49.573Z,964.2866
2024-05-09T07:45:54.468Z,964.2885
2024-05-09T07:48:13.727Z,964.2938
2024-05-09T07:50:34.746Z,964.3196
2024-05-09T07:53:22.002Z,964.3287
2024-05-09T07:54:01.395Z,964.3254
2024-05-09T07:55:02.035Z,964.3252
2024-05-09T07:56:02.171Z,964.3316
2024-05-09T07:57:03.385Z,964.3268
2024-05-09T07:58:03.485Z,964.3376
2024-05-09T07:59:05.812Z,964.3200
2024-05-09T08:00:06.680Z,964.3260
2024-05-09T08:01:07.043Z,964.3220
2024-05-09T08:02:07.086Z,964.3240
2024-05-09T08:03:07.013Z,964.3196
2024-05-09T08:04:09.274Z,964.3042
2024-05-09T08:05:09.388Z,964.2960
2024-05-09T08:06:10.390Z,964.3132
2024-05-09T08:07:12.697Z,964.3120
2024-05-09T08:08:14.997Z,964.3235
2024-05-09T08:09:21.013Z,964.3035
2024-05-09T08:10:22.107Z,964.3013
2024-05-09T08:11:18.310Z,964.2904
2024-05-09T08:12:20.612Z,964.2988
2024-05-09T08:13:23.135Z,964.2985
2024-05-09T08:14:23.196Z,964.3064
2024-05-09T08:15:25.486Z,964.2973
2024-05-09T08:16:25.578Z,964.3004
2024-05-09T08:17:25.569Z,964.3084
2024-05-09T08:18:27.990Z,964.2985
2024-05-09T08:19:28.085Z,964.3044
2024-05-09T08:20:33.720Z,964.3104
2024-05-09T08:21:31.482Z,964.3035
2024-05-09T08:22:32.439Z,964.3064
2024-05-09T08:23:34.700Z,964.3035
2024-05-09T08:24:36.984Z,964.3165
2024-05-09T08:25:39.196Z,964.3208
2024-05-09T08:26:41.466Z,964.3200
2024-05-09T08:27:42.555Z,964.3208
2024-05-09T08:28:42.416Z,964.3280
2024-05-09T08:29:44.713Z,964.3242
2024-05-09T08:30:44.840Z,964.3188
2024-05-09T08:31:45.839Z,964.3188
2024-05-09T08:32:48.353Z,964.3185
2024-05-09T08:33:48.668Z,964.3048
2024-05-09T08:34:48.721Z,964.2956
2024-05-09T08:35:50.024Z,964.2924
2024-05-09T08:36:52.376Z,964.2911
2024-05-09T08:37:53.069Z,964.2888
2024-05-09T08:38:53.062Z,964.2964
2024-05-09T08:39:53.204Z,964.2992
2024-05-09T08:40:55.593Z,964.2965
2024-05-09T08:41:55.650Z,964.2880
2024-05-09T08:42:57.874Z,964.3058
2024-05-09T08:44:00.121Z,964.3085
2024-05-09T08:45:02.303Z,964.3127
2024-05-09T08:46:02.393Z,964.3184
2024-05-09T08:47:02.981Z,964.3300
2024-05-09T08:48:05.421Z,964.3461
2024-05-09T08:49:06.058Z,964.3460
2024-05-09T08:50:08.570Z,964.3628
2024-05-09T08:51:06.583Z,964.3675
2024-05-09T08:52:07.546Z,964.3656
2024-05-09T08:53:07.856Z,964.3476
2024-05-09T08:54:07.937Z,964.3092
2024-05-09T08:55:10.363Z,964.2938
2024-05-09T08:56:10.502Z,964.2876
2024-05-09T08:57:12.721Z,964.2973
2024-05-09T08:58:15.353Z,964.2823
2024-05-09T08:59:16.168Z,964.2820
2024-05-09T09:00:29.049Z,964.2881
2024-05-09T09:01:19.702Z,964.2987
2024-05-09T09:02:21.293Z,964.3020
2024-05-09T09:03:21.850Z,964.2948
2024-05-09T09:04:24.259Z,964.2981
2024-05-09T09:05:24.426Z,964.2936
2024-05-09T09:06:24.357Z,964.2908
2024-05-09T09:07:26.784Z,964.2961
2024-05-09T09:08:27.683Z,964.2972
2024-05-09T09:09:27.996Z,964.2996
2024-05-09T09:10:32.360Z,964.2846
2024-05-09T09:11:30.827Z,964.2991
2024-05-09T09:12:33.107Z,964.2777
2024-05-09T09:13:35.350Z,964.2869
2024-05-09T09:14:37.596Z,964.3035
2024-05-09T09:15:37.664Z,964.3004
2024-05-09T09:16:39.938Z,964.2885
2024-05-09T09:17:42.387Z,964.2931
2024-05-09T09:18:42.644Z,964.2820
2024-05-09T09:19:42.584Z,964.2652
2024-05-09T09:20:45.005Z,964.2623
2024-05-09T09:21:45.060Z,964.2576
2024-05-09T09:22:45.122Z,964.2552
2024-05-09T09:23:47.527Z,964.2654
2024-05-09T09:24:49.724Z,964.2538
2024-05-09T09:25:50.863Z,964.2542
2024-05-09T09:26:51.713Z,964.2492
2024-05-09T09:27:53.991Z,964.2480
2024-05-09T09:28:54.037Z,964.2452
2024-05-09T09:29:56.322Z,964.2392
2024-05-09T09:30:56.238Z,964.2432
2024-05-09T09:31:58.466Z,964.2281
2024-05-09T09:33:01.009Z,964.2139
2024-05-09T09:34:01.283Z,964.2196
2024-05-09T09:35:01.395Z,964.2240
2024-05-09T09:36:01.531Z,964.2340
2024-05-09T09:37:03.823Z,964.2196
2024-05-09T09:38:03.823Z,964.2228
2024-05-09T09:39:06.062Z,964.2261
2024-05-09T09:40:08.949Z,964.2104
2024-05-09T09:41:08.895Z,964.2164
2024-05-09T09:42:09.804Z,964.2088
2024-05-09T09:43:12.212Z,964.2216
2024-05-09T09:44:12.279Z,964.2252
2024-05-09T09:45:14.632Z,964.2292
2024-05-09T09:46:17.121Z,964.2338
2024-05-09T09:47:17.373Z,964.2476
2024-05-09T09:48:19.748Z,964.2581
2024-05-09T09:49:21.538Z,964.2344
2024-05-09T09:50:27.706Z,964.2480
2024-05-09T09:51:22.620Z,964.2822
2024-05-09T09:52:23.028Z,964.2776
2024-05-09T09:53:22.931Z,964.2620
2024-05-09T09:54:25.231Z,964.2685
2024-05-09T09:55:26.062Z,964.2820
2024-05-09T09:56:25.959Z,964.2788
2024-05-09T09:57:26.221Z,964.2908
2024-05-09T09:58:28.563Z,964.2842
2024-05-09T09:59:28.524Z,964.2728
2024-05-09T10:00:33.290Z,964.2715
2024-05-09T10:01:31.911Z,964.2758
2024-05-09T10:02:32.172Z,964.2816
2024-05-09T10:03:32.342Z,964.2688
2024-05-09T10:04:33.417Z,964.2628
2024-05-09T10:05:33.717Z,964.2616
2024-05-09T10:06:33.755Z,964.2440
2024-05-09T10:07:35.924Z,964.1923
2024-05-09T10:08:38.038Z,964.2208
2024-05-09T10:09:40.283Z,964.2343
2024-05-09T10:10:42.690Z,964.2388
2024-05-09T10:12:44.854Z,964.2532
2024-05-09T10:13:47.071Z,964.2573
2024-05-09T10:14:49.367Z,964.2296
2024-05-09T10:15:52.146Z,964.2227
2024-05-09T10:16:52.295Z,964.2160
2024-05-09T10:17:54.712Z,964.2188
2024-05-09T10:18:54.822Z,964.2332
2024-05-09T10:19:54.864Z,964.2320
2024-05-09T10:20:54.932Z,964.2252
2024-05-09T10:21:57.258Z,964.1962
2024-05-09T10:22:57.328Z,964.1928
2024-05-09T10:23:57.645Z,964.1824
2024-05-09T10:25:01.505Z,964.1785
2024-05-09T10:26:03.790Z,964.1696
2024-05-09T10:27:03.616Z,964.1736
2024-05-09T10:28:04.135Z,964.1664
2024-05-09T10:29:06.439Z,964.1450
2024-05-09T10:30:14.412Z,964.1370
2024-05-09T10:31:09.701Z,964.1278
2024-05-09T10:32:11.920Z,964.1227
2024-05-09T10:33:13.008Z,964.1108
2024-05-09T10:34:13.172Z,964.1112
2024-05-09T10:35:13.146Z,964.1096
2024-05-09T10:36:13.319Z,964.1188
2024-05-09T10:37:15.695Z,964.1265
2024-05-09T10:38:15.637Z,964.0944
2024-05-09T10:39:16.014Z,964.0852
2024-05-09T10:40:25.778Z,964.0844
2024-05-09T10:41:19.112Z,964.0917
2024-05-09T10:42:21.311Z,964.0612
2024-05-09T10:43:21.336Z,964.0648
2024-05-09T10:44:21.153Z,964.0788
2024-05-09T10:45:23.487Z,964.0839
2024-05-09T10:46:25.759Z,964.0797
2024-05-09T10:47:28.199Z,964.0692
2024-05-09T10:48:29.323Z,964.0476
2024-05-09T10:49:29.267Z,964.0376
2024-05-09T10:50:34.238Z,964.0554
2024-05-09T10:51:33.226Z,964.0212
2024-05-09T10:52:35.519Z,964.0012
2024-05-09T10:53:37.859Z,963.9946
2024-05-09T10:54:37.894Z,963.9832
2024-05-09T10:55:37.881Z,963.9784
2024-05-09T10:56:37.768Z,963.9896
2024-05-09T10:57:39.986Z,964.0000
2024-05-09T10:58:42.401Z,963.9858
2024-05-09T10:59:42.371Z,963.9988
2024-05-09T11:00:44.794Z,963.9819
2024-05-09T11:01:45.018Z,963.9816
2024-05-09T11:02:45.053Z,963.9548
2024-05-09T11:03:47.572Z,963.9293
2024-05-09T11:04:47.951Z,963.9176
2024-05-09T11:05:47.997Z,963.9124
2024-05-09T11:06:48.073Z,963.9112
2024-05-09T11:07:50.570Z,963.9188
2024-05-09T11:08:50.486Z,963.9240
2024-05-09T11:09:52.903Z,963.9066
2024-05-09T11:10:53.039Z,963.8728
2024-05-09T11:11:53.226Z,963.8672
2024-05-09T11:12:53.293Z,963.8468
2024-05-09T11:13:55.546Z,963.8538
2024-05-09T11:14:57.860Z,963.8423
2024-05-09T11:16:00.179Z,963.8331
2024-05-09T11:17:00.276Z,963.8408
2024-05-09T11:18:02.782Z,963.8469
2024-05-09T11:19:04.916Z,963.8428
2024-05-09T11:20:10.773Z,963.8456
2024-05-09T11:21:06.106Z,963.8469
2024-05-09T11:22:08.570Z,963.8335
2024-05-09T11:23:08.578Z,963.8340
2024-05-09T11:24:11.482Z,963.8381
2024-05-09T11:25:11.853Z,963.7968
2024-05-09T11:26:12.590Z,963.7664
2024-05-09T11:27:12.522Z,963.7664
2024-05-09T11:28:15.046Z,963.7427
2024-05-09T11:29:17.935Z,963.7584
2024-05-09T11:30:24.190Z,963.7466
2024-05-09T11:31:18.255Z,963.7552
2024-05-09T11:32:18.302Z,963.7588
2024-05-09T11:33:19.220Z,963.7560
2024-05-09T11:34:19.373Z,963.7680
2024-05-09T11:35:19.637Z,963.7768
2024-05-09T11:36:19.555Z,963.7788
2024-05-09T11:37:19.635Z,963.7656
2024-05-09T11:38:19.584Z,963.7592
2024-05-09T11:39:21.779Z,963.7515
2024-05-09T11:40:26.035Z,963.7369
2024-05-09T11:41:25.076Z,963.7043
2024-05-09T11:42:25.206Z,963.7064
2024-05-09T11:43:25.475Z,963.7080
2024-05-09T11:44:25.341Z,963.7128
2024-05-09T11:45:27.554Z,963.7204
2024-05-09T11:46:29.703Z,963.7211
2024-05-09T11:47:32.075Z,963.7166
2024-05-09T11:48:32.331Z,963.7168
2024-05-09T11:49:32.613Z,963.7244
2024-05-09T11:50:35.498Z,963.6980
2024-05-09T11:51:33.432Z,963.6918
2024-05-09T11:52:35.665Z,963.6958
2024-05-09T11:53:37.818Z,963.6708
2024-05-09T11:54:40.114Z,963.6615
2024-05-09T11:55:42.284Z,963.6566
2024-05-09T11:56:44.513Z,963.6592
2024-05-09T11:57:46.848Z,963.6608
2024-05-09T11:58:47.136Z,963.6672
2024-05-09T11:59:50.061Z,963.6681
2024-05-09T12:00:50.044Z,963.6564
2024-05-09T12:01:50.295Z,963.6420
2024-05-09T12:02:50.318Z,963.6252
2024-05-09T12:03:52.743Z,963.6142
2024-05-09T12:04:52.814Z,963.6048